Pagrindinis puslapis
METAR-TAF:

METAR-TAF

Oro uostai :

Ranongas, Tailandas

platuma: 09-59N, ilguma: 098-37E, Aukštis: 7 m

Dabartinis oras

Ataskaita buvo paskelbta 37 minutes, ne 08:00 UTC
Vėjas 10 kt iš Pietryčių, svyruoja nuo Rytų/Šiaurės Rytų ir Pietų/Pietryčių
Temperatūra 31°C
Drėgmė 59%
Slėgis 1011 hPa
Matomumas 10 km arba daugiau
Išsisklaidę debesys ne aukštis 2500 ft

METAR: VTSR 230800Z 13010KT 070V160 9999 SCT025 31/22 Q1011 NOSIG

Laikas: 15:37 (08:37 UTC)

Prognozė

Ataskaita buvo paskelbta 3 valandos ir 37 minutes, ne 05:00 UTC
Prognozė galioja nuo 23 metu 06 UTC su 24 metu 06 UTC
Vėjas 10 kt iš Rytų
Matomumas 10 km arba daugiau
Išsisklaidę debesys ne aukštis 2000 ft

TAF: VTSR 230500Z 2306/2406 10010KT 9999 SCT020

Orai ataskaitas ir orų prognozės (METAR, TAF).

turimą stotys yra geltonos ir raudonos taškus žemėlapyje.

Perkelti pele per norėdami pamatyti stoties vardą.

Tada spustelėkite, norėdami matyti oro stebėjimo ir prognozės.

Norėdami pakeisti žemėlapį: spustelėkite ant žalios mygtukų su juodo kryžiaus žemyn,; žalią mygtuką su brūkšneliu, jei norite nutolinti; arba žalių rodyklių gretimoms žemėlapius.


METAR-TAF: